createdAt,value
2019-05-01T00:00:23.620Z,86.30
2019-05-01T00:03:02.850Z,86.70
2019-05-01T00:05:33.008Z,87.80
2019-05-01T00:08:01.713Z,88.30
2019-05-01T00:10:30.714Z,88.70
2019-05-01T00:12:59.153Z,86.90
2019-05-01T00:15:29.253Z,85.70
2019-05-01T00:17:57.685Z,86.00
2019-05-01T00:20:26.448Z,90.00
2019-05-01T00:22:55.341Z,89.10
2019-05-01T00:25:24.131Z,89.40
2019-05-01T00:27:52.589Z,89.10
2019-05-01T00:30:30.121Z,87.30
2019-05-01T00:32:55.171Z,85.40
2019-05-01T00:35:23.907Z,86.10
2019-05-01T00:37:52.705Z,86.00
2019-05-01T00:40:21.495Z,85.10
2019-05-01T00:42:49.940Z,84.70
2019-05-01T00:45:18.441Z,84.30
2019-05-01T00:47:47.260Z,84.80
2019-05-01T00:50:16.158Z,85.50
2019-05-01T00:52:44.588Z,85.50
2019-05-01T00:55:30.720Z,85.90
2019-05-01T00:58:00.790Z,86.00
2019-05-01T01:00:43.274Z,86.10
2019-05-01T01:03:10.567Z,86.20
2019-05-01T01:05:39.011Z,86.40
2019-05-01T01:08:07.795Z,86.70
2019-05-01T01:10:36.314Z,87.10
2019-05-01T01:13:04.771Z,86.40
2019-05-01T01:15:33.419Z,85.80
2019-05-01T01:18:01.856Z,85.30
2019-05-01T01:20:30.380Z,85.40
2019-05-01T01:22:58.885Z,83.70
2019-05-01T01:25:27.468Z,85.10
2019-05-01T01:27:55.918Z,83.90
2019-05-01T01:30:24.685Z,84.80
2019-05-01T01:32:53.132Z,82.80
2019-05-01T01:35:21.571Z,84.70
2019-05-01T01:37:50.348Z,85.20
2019-05-01T01:40:18.911Z,84.90
2019-05-01T01:42:49.171Z,86.30
2019-05-01T01:45:19.699Z,83.90
2019-05-01T01:48:06.711Z,84.30
2019-05-01T01:50:35.388Z,85.80
2019-05-01T01:53:04.255Z,85.50
2019-05-01T01:55:32.786Z,86.60
2019-05-01T01:58:01.765Z,87.90
2019-05-01T02:00:32.203Z,85.70
2019-05-01T02:03:02.737Z,87.10
2019-05-01T02:05:32.886Z,90.00
2019-05-01T02:08:01.557Z,88.80
2019-05-01T02:10:42.335Z,87.40
2019-05-01T02:13:00.863Z,86.40
2019-05-01T02:15:29.534Z,86.50
2019-05-01T02:17:57.983Z,87.00
2019-05-01T02:20:26.413Z,88.00
2019-05-01T02:22:54.873Z,88.10
2019-05-01T02:25:24.025Z,87.20
2019-05-01T02:27:54.971Z,87.00
2019-05-01T02:30:24.549Z,87.00
2019-05-01T02:32:54.395Z,87.00
2019-05-01T02:35:23.174Z,85.80
2019-05-01T02:37:52.931Z,85.40
2019-05-01T02:40:43.081Z,84.90
2019-05-01T02:43:14.604Z,84.00
2019-05-01T02:45:45.624Z,82.20
2019-05-01T02:48:17.298Z,83.10
2019-05-01T02:50:48.799Z,82.60
2019-05-01T02:53:20.056Z,83.20
2019-05-01T02:55:50.579Z,81.80
2019-05-01T02:58:19.479Z,83.10
2019-05-01T03:00:47.988Z,82.70
2019-05-01T03:03:16.757Z,82.60
2019-05-01T03:05:45.273Z,82.30
2019-05-01T03:08:13.776Z,83.50
2019-05-01T03:10:42.382Z,83.10
2019-05-01T03:13:11.149Z,83.20
2019-05-01T03:15:40.002Z,83.90
2019-05-01T03:18:16.269Z,84.60
2019-05-01T03:21:03.274Z,82.70
2019-05-01T03:23:33.428Z,86.00
2019-05-01T03:26:02.007Z,86.80
2019-05-01T03:28:31.124Z,82.10
2019-05-01T03:30:59.625Z,81.20
2019-05-01T03:33:28.937Z,81.30
2019-05-01T03:35:57.840Z,81.10
2019-05-01T03:38:26.927Z,80.70
2019-05-01T03:40:56.008Z,80.80
2019-05-01T03:43:26.008Z,83.90
2019-05-01T03:45:55.754Z,83.60
2019-05-01T03:48:25.488Z,84.60
2019-05-01T03:50:54.910Z,86.40
2019-05-01T03:53:23.690Z,86.30
2019-05-01T03:55:52.489Z,88.10
2019-05-01T03:58:21.272Z,86.10
2019-05-01T04:00:51.433Z,87.60
2019-05-01T04:03:24.945Z,87.00
2019-05-01T04:05:54.142Z,86.00
2019-05-01T04:08:22.590Z,87.30
2019-05-01T04:10:51.309Z,87.10
2019-05-01T04:13:19.913Z,86.10
2019-05-01T04:15:49.105Z,87.50
2019-05-01T04:18:17.689Z,87.60
2019-05-01T04:20:46.199Z,84.20
2019-05-01T04:23:15.792Z,82.60
2019-05-01T04:25:44.638Z,83.60
2019-05-01T04:28:30.368Z,83.80
2019-05-01T04:31:10.011Z,83.10
2019-05-01T04:33:40.154Z,82.00
2019-05-01T04:36:10.971Z,81.60
2019-05-01T04:38:39.562Z,80.90
2019-05-01T04:41:08.658Z,81.50
2019-05-01T04:43:37.178Z,81.70
2019-05-01T04:46:05.947Z,86.30
2019-05-01T04:48:34.395Z,84.40
2019-05-01T04:51:03.189Z,83.10
2019-05-01T04:53:31.883Z,84.80
2019-05-01T04:56:00.758Z,85.10
2019-05-01T04:58:29.420Z,81.50
2019-05-01T05:00:58.290Z,83.00
2019-05-01T05:03:28.198Z,83.30
2019-05-01T05:05:57.000Z,83.60
2019-05-01T05:08:25.496Z,84.80
2019-05-01T05:10:56.533Z,84.90
2019-05-01T05:13:27.113Z,88.00
2019-05-01T05:15:57.377Z,88.80
2019-05-01T05:18:27.005Z,90.20
2019-05-01T05:20:55.926Z,91.30
2019-05-01T05:23:24.434Z,88.20
2019-05-01T05:25:53.055Z,88.10
2019-05-01T05:28:22.381Z,86.70
2019-05-01T05:30:52.484Z,87.80
2019-05-01T05:33:23.142Z,89.30
2019-05-01T05:35:53.775Z,86.40
2019-05-01T05:38:25.117Z,85.20
2019-05-01T05:40:54.688Z,85.80
2019-05-01T05:43:24.060Z,88.50
2019-05-01T05:45:52.832Z,86.40
2019-05-01T05:48:21.628Z,86.90
2019-05-01T05:50:56.973Z,87.00
2019-05-01T05:53:30.156Z,86.40
2019-05-01T05:56:03.231Z,83.60
2019-05-01T05:58:42.283Z,83.90
2019-05-01T06:01:30.111Z,84.00
2019-05-01T06:04:18.059Z,83.70
2019-05-01T06:06:55.936Z,82.20
2019-05-01T06:09:29.445Z,81.80
2019-05-01T06:12:16.872Z,82.30
2019-05-01T06:14:55.373Z,83.50
2019-05-01T06:17:28.680Z,83.20
2019-05-01T06:20:13.840Z,82.60
2019-05-01T06:23:01.679Z,83.20
2019-05-01T06:25:42.737Z,83.30
2019-05-01T06:28:12.360Z,83.40
2019-05-01T06:30:42.089Z,83.20
2019-05-01T06:33:11.784Z,83.90
2019-05-01T06:35:40.237Z,83.10
2019-05-01T06:38:16.797Z,82.90
2019-05-01T06:40:48.115Z,84.00
2019-05-01T06:43:33.558Z,83.90
2019-05-01T06:46:12.536Z,84.60
2019-05-01T06:49:02.240Z,87.00
2019-05-01T06:51:35.343Z,86.60
2019-05-01T06:54:11.353Z,87.00
2019-05-01T06:56:38.472Z,86.20
2019-05-01T06:59:07.545Z,84.00
2019-05-01T07:01:37.256Z,84.30
2019-05-01T07:04:06.368Z,84.00
2019-05-01T07:06:35.541Z,83.10
2019-05-01T07:09:06.912Z,82.20
2019-05-01T07:11:37.864Z,81.50
2019-05-01T07:14:11.249Z,81.50
2019-05-01T07:16:38.058Z,81.10
2019-05-01T07:19:09.259Z,82.90
2019-05-01T07:21:38.508Z,84.10
2019-05-01T07:24:07.003Z,85.50
2019-05-01T07:26:35.655Z,85.80
2019-05-01T07:29:09.919Z,86.10
2019-05-01T07:31:36.708Z,85.30
2019-05-01T07:34:16.043Z,83.70
2019-05-01T07:36:36.289Z,82.30
2019-05-01T07:39:09.925Z,82.80
2019-05-01T07:41:38.797Z,80.80
2019-05-01T07:44:09.471Z,80.40
2019-05-01T07:46:48.810Z,78.30
2019-05-01T07:49:17.718Z,77.60
2019-05-01T07:51:53.260Z,77.30
2019-05-01T07:54:23.035Z,75.60
2019-05-01T07:56:52.136Z,77.00
2019-05-01T07:59:22.774Z,76.10
2019-05-01T08:01:58.614Z,76.00
2019-05-01T08:04:35.811Z,76.30
2019-05-01T08:06:58.688Z,72.80
2019-05-01T08:09:27.305Z,74.10
2019-05-01T08:11:55.995Z,72.20
2019-05-01T08:14:24.791Z,71.70
2019-05-01T08:16:53.285Z,71.80
2019-05-01T08:19:23.413Z,71.10
2019-05-01T08:22:05.658Z,73.30
2019-05-01T08:24:34.156Z,65.70
2019-05-01T08:27:02.969Z,68.20
2019-05-01T08:29:49.432Z,68.30
2019-05-01T08:32:19.526Z,65.90
2019-05-01T08:34:49.356Z,63.30
2019-05-01T08:37:22.675Z,66.60
2019-05-01T08:39:48.553Z,63.50
2019-05-01T08:42:17.212Z,66.60
2019-05-01T08:44:47.635Z,63.20
2019-05-01T08:47:34.389Z,59.60
2019-05-01T08:50:11.217Z,61.10
2019-05-01T08:52:42.614Z,60.00
2019-05-01T08:55:10.948Z,60.10
2019-05-01T08:57:39.762Z,59.10
2019-05-01T09:00:08.928Z,58.90
2019-05-01T09:02:41.798Z,58.20
2019-05-01T09:05:27.012Z,55.30
2019-05-01T09:07:39.263Z,56.40
2019-05-01T09:10:09.301Z,52.30
2019-05-01T09:12:37.904Z,52.50
2019-05-01T09:15:12.836Z,55.00
2019-05-01T09:17:38.266Z,50.10
2019-05-01T09:20:07.381Z,55.10
2019-05-01T09:22:35.965Z,50.80
2019-05-01T09:25:05.037Z,51.10
2019-05-01T09:27:41.507Z,51.90
2019-05-01T09:30:12.481Z,53.20
2019-05-01T09:32:45.921Z,52.90
2019-05-01T09:35:15.853Z,52.90
2019-05-01T09:37:42.541Z,55.10
2019-05-01T09:40:11.232Z,51.20
2019-05-01T09:42:40.028Z,49.90
2019-05-01T09:45:09.392Z,50.00
2019-05-01T09:47:38.225Z,48.30
2019-05-01T09:50:08.764Z,44.10
2019-05-01T09:53:15.275Z,41.70
2019-05-01T09:55:48.811Z,44.90
2019-05-01T09:58:28.859Z,45.00
2019-05-01T10:00:58.955Z,45.20
2019-05-01T10:03:27.385Z,42.30
2019-05-01T10:05:56.161Z,45.80
2019-05-01T10:08:24.603Z,46.90
2019-05-01T10:10:53.093Z,47.40
2019-05-01T10:13:22.770Z,47.80
2019-05-01T10:15:52.464Z,43.90
2019-05-01T10:18:21.252Z,44.20
2019-05-01T10:20:49.720Z,50.20
2019-05-01T10:23:18.436Z,48.00
2019-05-01T10:25:49.833Z,47.30
2019-05-01T10:28:23.126Z,47.60
2019-05-01T10:30:53.205Z,44.70
2019-05-01T10:33:23.633Z,44.90
2019-05-01T10:36:17.810Z,46.80
2019-05-01T10:38:40.027Z,42.90
2019-05-01T10:41:10.640Z,44.60
2019-05-01T10:43:39.199Z,44.00
2019-05-01T10:46:07.641Z,46.70
2019-05-01T10:48:36.088Z,44.80
2019-05-01T10:51:04.593Z,43.40
2019-05-01T10:53:33.088Z,43.50
2019-05-01T10:56:01.805Z,45.80
2019-05-01T10:58:30.279Z,49.20
2019-05-01T11:01:00.367Z,47.00
2019-05-01T11:03:28.802Z,43.10
2019-05-01T11:05:57.258Z,47.80
2019-05-01T11:08:25.980Z,46.90
2019-05-01T11:10:54.440Z,46.80
2019-05-01T11:13:23.153Z,43.50
2019-05-01T11:15:51.712Z,41.70
2019-05-01T11:18:20.143Z,49.40
2019-05-01T11:20:48.611Z,51.90
2019-05-01T11:23:17.040Z,44.50
2019-05-01T11:25:45.792Z,47.60
2019-05-01T11:28:14.581Z,45.30
2019-05-01T11:30:43.033Z,46.90
2019-05-01T11:33:16.072Z,42.70
2019-05-01T11:35:46.171Z,46.00
2019-05-01T11:38:18.909Z,44.00
2019-05-01T11:40:51.709Z,42.00
2019-05-01T11:43:20.155Z,42.40
2019-05-01T11:45:48.595Z,45.80
2019-05-01T11:48:17.415Z,45.50
2019-05-01T11:50:45.858Z,47.70
2019-05-01T11:53:14.593Z,45.90
2019-05-01T11:55:43.777Z,47.00
2019-05-01T11:58:12.588Z,46.80
2019-05-01T12:00:41.197Z,43.60
2019-05-01T12:03:09.964Z,46.30
2019-05-01T12:05:38.653Z,43.80
2019-05-01T12:08:07.099Z,47.60
2019-05-01T12:10:35.873Z,41.00
2019-05-01T12:13:04.468Z,41.10
2019-05-01T12:15:33.216Z,40.10
2019-05-01T12:18:01.659Z,37.70
2019-05-01T12:20:30.093Z,40.80
2019-05-01T12:22:58.535Z,43.90
2019-05-01T12:25:27.265Z,42.90
2019-05-01T12:27:55.768Z,42.40
2019-05-01T12:30:24.193Z,39.50
2019-05-01T12:32:52.696Z,41.40
2019-05-01T12:35:44.437Z,41.60
2019-05-01T12:38:13.230Z,41.90
2019-05-01T12:40:43.044Z,37.40
2019-05-01T12:43:12.381Z,39.60
2019-05-01T12:45:42.577Z,40.50
2019-05-01T12:48:11.472Z,42.60
2019-05-01T12:50:39.935Z,41.60
2019-05-01T12:53:15.632Z,36.70
2019-05-01T12:55:46.037Z,40.60
2019-05-01T12:58:14.469Z,42.00
2019-05-01T13:00:46.587Z,36.60
2019-05-01T13:03:15.560Z,38.90
2019-05-01T13:05:44.098Z,40.00
2019-05-01T13:08:12.892Z,36.60
2019-05-01T13:10:41.344Z,38.20
2019-05-01T13:13:11.213Z,40.10
2019-05-01T13:15:40.004Z,40.70
2019-05-01T13:18:08.481Z,37.60
2019-05-01T13:20:37.246Z,37.40
2019-05-01T13:23:06.040Z,38.20
2019-05-01T13:25:34.474Z,38.40
2019-05-01T13:28:17.037Z,36.70
2019-05-01T13:31:03.420Z,37.80
2019-05-01T13:33:31.945Z,35.40
2019-05-01T13:36:00.373Z,35.80
2019-05-01T13:38:28.825Z,35.80
2019-05-01T13:40:57.251Z,35.90
2019-05-01T13:43:25.725Z,31.40
2019-05-01T13:45:54.443Z,32.50
2019-05-01T13:48:23.241Z,30.10
2019-05-01T13:50:52.023Z,31.90
2019-05-01T13:53:20.553Z,30.00
2019-05-01T13:55:48.988Z,28.80
2019-05-01T13:58:17.439Z,27.60
2019-05-01T14:00:45.877Z,25.30
2019-05-01T14:03:14.775Z,25.10
2019-05-01T14:05:43.204Z,22.60
2019-05-01T14:08:11.677Z,23.90
2019-05-01T14:10:40.534Z,22.70
2019-05-01T14:13:09.328Z,22.70
2019-05-01T14:15:38.119Z,23.20
2019-05-01T14:18:06.552Z,21.70
2019-05-01T14:20:48.808Z,23.10
2019-05-01T14:23:35.287Z,24.50
2019-05-01T14:26:05.736Z,22.10
2019-05-01T14:28:36.101Z,23.20
2019-05-01T14:31:05.888Z,22.60
2019-05-01T14:33:53.653Z,21.70
2019-05-01T14:36:22.105Z,21.00
2019-05-01T14:38:50.531Z,20.10
2019-05-01T14:41:18.990Z,22.60
2019-05-01T14:43:47.626Z,23.00
2019-05-01T14:46:16.099Z,23.60
2019-05-01T14:48:44.930Z,23.70
2019-05-01T14:51:13.385Z,23.10
2019-05-01T14:53:41.816Z,23.40
2019-05-01T14:56:10.264Z,23.70
2019-05-01T14:58:38.975Z,21.80
2019-05-01T15:01:07.768Z,23.00
2019-05-01T15:03:36.242Z,21.60
2019-05-01T15:06:05.053Z,22.10
2019-05-01T15:08:33.837Z,21.30
2019-05-01T15:11:02.639Z,23.50
2019-05-01T15:13:41.772Z,25.30
2019-05-01T15:16:15.055Z,24.80
2019-05-01T15:19:01.737Z,25.10
2019-05-01T15:21:30.548Z,25.10
2019-05-01T15:23:58.996Z,24.40
2019-05-01T15:26:27.423Z,23.60
2019-05-01T15:28:55.888Z,25.50
2019-05-01T15:31:24.603Z,25.40
2019-05-01T15:33:53.030Z,23.40
2019-05-01T15:36:21.490Z,24.40
2019-05-01T15:38:49.913Z,26.70
2019-05-01T15:41:37.074Z,26.00
2019-05-01T15:44:07.499Z,25.30
2019-05-01T15:46:37.591Z,26.50
2019-05-01T15:49:06.320Z,27.10
2019-05-01T15:51:34.770Z,26.30
2019-05-01T15:54:03.208Z,26.70
2019-05-01T15:56:31.973Z,26.30
2019-05-01T15:59:00.405Z,29.90
2019-05-01T16:01:28.851Z,30.10
2019-05-01T16:03:57.287Z,27.00
2019-05-01T16:06:25.744Z,27.50
2019-05-01T16:08:54.184Z,28.50
2019-05-01T16:11:30.980Z,26.70
2019-05-01T16:13:59.409Z,27.40
2019-05-01T16:16:27.853Z,28.40
2019-05-01T16:18:56.304Z,29.60
2019-05-01T16:21:24.748Z,27.70
2019-05-01T16:23:53.189Z,29.60
2019-05-01T16:26:21.638Z,29.00
2019-05-01T16:28:50.485Z,30.20
2019-05-01T16:31:19.281Z,26.60
2019-05-01T16:33:47.728Z,30.00
2019-05-01T16:36:16.226Z,29.90
2019-05-01T16:38:49.353Z,28.60
2019-05-01T16:41:18.129Z,30.70
2019-05-01T16:43:46.578Z,31.50
2019-05-01T16:46:15.008Z,31.80
2019-05-01T16:48:43.478Z,32.90
2019-05-01T16:51:12.276Z,32.00
2019-05-01T16:53:40.712Z,32.90
2019-05-01T16:56:09.564Z,31.70
2019-05-01T16:58:38.452Z,33.00
2019-05-01T17:01:09.404Z,31.00
2019-05-01T17:03:39.479Z,30.00
2019-05-01T17:06:26.020Z,32.30
2019-05-01T17:09:02.491Z,31.90
2019-05-01T17:11:32.939Z,32.30
2019-05-01T17:14:01.370Z,30.30
2019-05-01T17:16:29.807Z,32.90
2019-05-01T17:18:58.241Z,32.40
2019-05-01T17:21:26.690Z,32.80
2019-05-01T17:23:55.108Z,34.60
2019-05-01T17:26:23.544Z,34.90
2019-05-01T17:28:52.013Z,35.70
2019-05-01T17:31:20.449Z,33.60
2019-05-01T17:33:50.920Z,34.60
2019-05-01T17:36:19.312Z,36.40
2019-05-01T17:38:49.605Z,38.90
2019-05-01T17:41:18.227Z,38.70
2019-05-01T17:43:49.416Z,40.20
2019-05-01T17:46:17.112Z,40.40
2019-05-01T17:48:45.867Z,41.30
2019-05-01T17:51:14.357Z,41.70
2019-05-01T17:53:43.120Z,42.40
2019-05-01T17:56:15.314Z,42.90
2019-05-01T17:58:42.031Z,45.10
2019-05-01T18:01:33.369Z,46.80
2019-05-01T18:04:02.335Z,48.60
2019-05-01T18:06:35.433Z,49.70
2019-05-01T18:09:08.035Z,51.30
2019-05-01T18:11:36.731Z,51.20
2019-05-01T18:14:06.070Z,52.00
2019-05-01T18:16:34.516Z,53.10
2019-05-01T18:19:03.031Z,53.60
2019-05-01T18:21:31.637Z,54.20
2019-05-01T18:24:18.845Z,54.00
2019-05-01T18:26:49.108Z,54.10
2019-05-01T18:29:19.215Z,55.40
2019-05-01T18:31:47.703Z,54.90
2019-05-01T18:34:16.171Z,55.60
2019-05-01T18:36:54.992Z,56.50
2019-05-01T18:39:27.198Z,56.90
2019-05-01T18:42:03.352Z,57.20
2019-05-01T18:44:32.150Z,57.10
2019-05-01T18:47:01.074Z,58.20
2019-05-01T18:49:29.943Z,58.80
2019-05-01T18:51:58.738Z,58.50
2019-05-01T18:54:30.409Z,58.90
2019-05-01T18:56:58.160Z,59.50
2019-05-01T18:59:27.056Z,60.00
2019-05-01T19:01:55.630Z,60.60
2019-05-01T19:04:24.736Z,60.60
2019-05-01T19:06:53.331Z,60.30
2019-05-01T19:09:29.950Z,59.40
2019-05-01T19:11:52.221Z,60.10
2019-05-01T19:14:23.513Z,60.30
2019-05-01T19:16:52.081Z,59.80
2019-05-01T19:19:20.790Z,60.20
2019-05-01T19:21:49.339Z,60.90
2019-05-01T19:24:18.261Z,61.20
2019-05-01T19:26:47.028Z,61.70
2019-05-01T19:29:15.547Z,62.40
2019-05-01T19:31:44.270Z,63.30
2019-05-01T19:34:13.144Z,63.10
2019-05-01T19:36:45.134Z,63.00
2019-05-01T19:39:13.011Z,63.30
2019-05-01T19:41:43.730Z,63.50
2019-05-01T19:44:13.958Z,63.30
2019-05-01T19:46:43.232Z,62.90
2019-05-01T19:49:11.740Z,62.90
2019-05-01T19:51:40.211Z,64.30
2019-05-01T19:54:09.116Z,64.20
2019-05-01T19:56:37.942Z,64.10
2019-05-01T19:59:06.415Z,65.10
2019-05-01T20:01:38.391Z,65.30
2019-05-01T20:04:08.429Z,66.00
2019-05-01T20:06:38.512Z,66.10
2019-05-01T20:09:06.733Z,65.60
2019-05-01T20:11:35.464Z,65.90
2019-05-01T20:14:06.116Z,65.50
2019-05-01T20:16:34.434Z,65.30
2019-05-01T20:19:02.927Z,65.10
2019-05-01T20:21:31.664Z,64.00
2019-05-01T20:24:04.470Z,64.30
2019-05-01T20:26:32.006Z,65.50
2019-05-01T20:29:01.417Z,65.20
2019-05-01T20:31:32.599Z,65.50
2019-05-01T20:34:00.029Z,65.80
2019-05-01T20:36:28.461Z,66.30
2019-05-01T20:38:56.904Z,66.60
2019-05-01T20:41:25.415Z,66.90
2019-05-01T20:43:54.176Z,66.80
2019-05-01T20:46:26.246Z,66.40
2019-05-01T20:48:56.002Z,66.60
2019-05-01T20:51:23.933Z,66.50
2019-05-01T20:53:52.483Z,66.50
2019-05-01T20:56:28.762Z,66.00
2019-05-01T20:58:57.732Z,66.20
2019-05-01T21:01:29.379Z,67.10
2019-05-01T21:04:02.585Z,67.30
2019-05-01T21:06:39.056Z,68.10
2019-05-01T21:09:13.730Z,67.70
2019-05-01T21:11:47.440Z,68.00
2019-05-01T21:14:20.072Z,67.40
2019-05-01T21:16:45.200Z,68.00
2019-05-01T21:19:13.731Z,69.00
2019-05-01T21:22:01.527Z,68.90
2019-05-01T21:24:29.957Z,68.20
2019-05-01T21:26:58.391Z,68.50
2019-05-01T21:29:26.837Z,67.80
2019-05-01T21:31:55.263Z,67.40
2019-05-01T21:34:24.497Z,68.10
2019-05-01T21:36:54.030Z,68.30
2019-05-01T21:39:25.037Z,69.60
2019-05-01T21:41:53.769Z,68.30
2019-05-01T21:44:23.412Z,67.70
2019-05-01T21:46:53.485Z,69.20
2019-05-01T21:49:22.925Z,70.00
2019-05-01T21:51:53.035Z,70.10
2019-05-01T21:54:21.965Z,69.60
2019-05-01T21:56:50.723Z,69.60
2019-05-01T21:59:19.151Z,69.60
2019-05-01T22:01:48.060Z,68.00
2019-05-01T22:04:16.504Z,68.00
2019-05-01T22:06:46.914Z,68.30
2019-05-01T22:09:16.841Z,67.10
2019-05-01T22:11:45.780Z,66.90
2019-05-01T22:14:15.936Z,67.80
2019-05-01T22:16:44.617Z,68.30
2019-05-01T22:19:17.864Z,69.30
2019-05-01T22:21:53.741Z,68.90
2019-05-01T22:24:29.709Z,69.80
2019-05-01T22:26:59.780Z,70.10
2019-05-01T22:29:32.173Z,67.60
2019-05-01T22:32:17.489Z,67.00
2019-05-01T22:34:47.566Z,68.50
2019-05-01T22:37:16.300Z,69.30
2019-05-01T22:39:46.724Z,69.50
2019-05-01T22:42:15.220Z,70.00
2019-05-01T22:44:43.665Z,70.40
2019-05-01T22:47:15.038Z,70.30
2019-05-01T22:49:42.332Z,70.60
2019-05-01T22:52:11.101Z,69.90
2019-05-01T22:54:39.813Z,72.10
2019-05-01T22:57:08.265Z,71.40
2019-05-01T22:59:36.708Z,70.10
2019-05-01T23:02:12.920Z,71.00
2019-05-01T23:04:41.383Z,70.60
2019-05-01T23:07:11.753Z,70.30
2019-05-01T23:09:40.632Z,69.20
2019-05-01T23:12:09.079Z,69.20
2019-05-01T23:14:37.808Z,69.10
2019-05-01T23:17:17.145Z,68.80
2019-05-01T23:19:45.959Z,69.80
2019-05-01T23:22:14.606Z,69.80
2019-05-01T23:24:43.099Z,70.00
2019-05-01T23:27:11.552Z,71.00
2019-05-01T23:29:39.963Z,69.20
2019-05-01T23:32:08.781Z,70.70
2019-05-01T23:34:37.213Z,69.70
2019-05-01T23:37:06.530Z,70.10
2019-05-01T23:39:40.379Z,71.00
2019-05-01T23:42:05.248Z,69.70
2019-05-01T23:44:33.700Z,69.30
2019-05-01T23:47:02.122Z,70.00
2019-05-01T23:49:30.584Z,69.70
2019-05-01T23:52:03.454Z,68.70
2019-05-01T23:54:29.443Z,69.40
2019-05-01T23:56:58.950Z,69.40
2019-05-01T23:59:27.768Z,69.60
